Terminal Aerodrome Forecast
Issued by NWS

Home | Current Version | Previous Version | Text Only | Print | Product List | Glossary On
Versions: 1 2 3 4 5 6 7 8 9 10 11 12 13
590
FTUS43 KDVN 211734
TAFBRL
TAF
KBRL 211734Z 2118/2218 32013G18KT P6SM BKN090
     FM212300 33011KT P6SM SKC
     FM220600 34005KT P6SM SKC
     FM221500 24005KT P6SM SCT250=

USA.gov is the U.S. government's official web portal to all federal, state and local government web resources and services.